sensor_id;sensor_type;location;lat;lon;timestamp;P1;durP1;ratioP1;P2;durP2;ratioP2
1090;SDS011;534;48.704;9.122;2024-03-02T05:01:49;14.53;;;8.70;;
1090;SDS011;534;48.704;9.122;2024-03-02T05:04:16;13.53;;;10.67;;
1090;SDS011;534;48.704;9.122;2024-03-02T05:06:43;14.27;;;9.70;;
1090;SDS011;534;48.704;9.122;2024-03-02T05:09:09;14.33;;;10.27;;
1090;SDS011;534;48.704;9.122;2024-03-02T05:11:36;12.10;;;8.70;;
1090;SDS011;534;48.704;9.122;2024-03-02T05:14:24;15.57;;;9.60;;
1090;SDS011;534;48.704;9.122;2024-03-02T05:16:52;13.57;;;9.10;;
1090;SDS011;534;48.704;9.122;2024-03-02T05:19:18;14.07;;;9.00;;
1090;SDS011;534;48.704;9.122;2024-03-02T05:21:45;15.20;;;9.13;;
1090;SDS011;534;48.704;9.122;2024-03-02T05:24:12;14.53;;;8.90;;
1090;SDS011;534;48.704;9.122;2024-03-02T05:26:38;13.87;;;9.30;;
1090;SDS011;534;48.704;9.122;2024-03-02T05:29:05;13.80;;;9.40;;
1090;SDS011;534;48.704;9.122;2024-03-02T05:31:31;13.43;;;8.23;;
1090;SDS011;534;48.704;9.122;2024-03-02T05:33:59;14.30;;;9.10;;
1090;SDS011;534;48.704;9.122;2024-03-02T05:36:26;12.93;;;9.43;;
1090;SDS011;534;48.704;9.122;2024-03-02T05:38:52;14.10;;;8.40;;
1090;SDS011;534;48.704;9.122;2024-03-02T05:41:19;15.90;;;10.30;;
1090;SDS011;534;48.704;9.122;2024-03-02T05:43:46;15.60;;;9.10;;
1090;SDS011;534;48.704;9.122;2024-03-02T05:46:12;13.60;;;9.17;;
1090;SDS011;534;48.704;9.122;2024-03-02T05:48:39;13.90;;;9.43;;
1090;SDS011;534;48.704;9.122;2024-03-02T05:51:07;14.03;;;9.63;;
1090;SDS011;534;48.704;9.122;2024-03-02T05:53:34;13.43;;;10.27;;
1090;SDS011;534;48.704;9.122;2024-03-02T05:56:03;14.77;;;9.43;;
1090;SDS011;534;48.704;9.122;2024-03-02T05:58:30;15.43;;;10.30;;
1090;SDS011;534;48.704;9.122;2024-03-02T06:01:08;14.00;;;9.10;;
1090;SDS011;534;48.704;9.122;2024-03-02T06:03:34;16.43;;;11.20;;
1090;SDS011;534;48.704;9.122;2024-03-02T06:06:01;15.40;;;9.77;;
1090;SDS011;534;48.704;9.122;2024-03-02T06:08:29;15.80;;;10.53;;
1090;SDS011;534;48.704;9.122;2024-03-02T06:10:56;13.50;;;9.70;;
1090;SDS011;534;48.704;9.122;2024-03-02T06:13:23;14.30;;;9.93;;
1090;SDS011;534;48.704;9.122;2024-03-02T06:15:50;18.27;;;10.97;;
1090;SDS011;534;48.704;9.122;2024-03-02T06:18:17;17.30;;;11.53;;
1090;SDS011;534;48.704;9.122;2024-03-02T06:20:43;16.67;;;10.60;;
1090;SDS011;534;48.704;9.122;2024-03-02T06:23:10;23.90;;;17.10;;
1090;SDS011;534;48.704;9.122;2024-03-02T06:25:38;25.07;;;17.77;;
1090;SDS011;534;48.704;9.122;2024-03-02T06:28:05;20.10;;;14.60;;
1090;SDS011;534;48.704;9.122;2024-03-02T06:30:32;18.67;;;13.60;;
1090;SDS011;534;48.704;9.122;2024-03-02T06:32:59;13.90;;;8.47;;
1090;SDS011;534;48.704;9.122;2024-03-02T06:35:25;12.87;;;7.90;;
1090;SDS011;534;48.704;9.122;2024-03-02T06:37:52;15.03;;;8.67;;
1090;SDS011;534;48.704;9.122;2024-03-02T06:40:19;14.07;;;8.67;;
1090;SDS011;534;48.704;9.122;2024-03-02T06:42:47;13.30;;;9.90;;
1090;SDS011;534;48.704;9.122;2024-03-02T06:45:13;12.80;;;9.43;;
1090;SDS011;534;48.704;9.122;2024-03-02T06:47:40;15.83;;;9.73;;
1090;SDS011;534;48.704;9.122;2024-03-02T06:50:07;14.40;;;11.20;;
1090;SDS011;534;48.704;9.122;2024-03-02T06:52:34;16.50;;;12.43;;
1090;SDS011;534;48.704;9.122;2024-03-02T06:55:01;16.00;;;11.77;;
1090;SDS011;534;48.704;9.122;2024-03-02T06:57:29;19.33;;;11.33;;
1090;SDS011;534;48.704;9.122;2024-03-02T06:59:57;13.80;;;9.57;;
1090;SDS011;534;48.704;9.122;2024-03-02T07:02:23;16.60;;;9.83;;
1090;SDS011;534;48.704;9.122;2024-03-02T07:04:51;15.40;;;9.83;;
1090;SDS011;534;48.704;9.122;2024-03-02T07:07:18;12.10;;;8.00;;
1090;SDS011;534;48.704;9.122;2024-03-02T07:09:45;13.90;;;7.87;;
1090;SDS011;534;48.704;9.122;2024-03-02T07:12:12;14.10;;;8.13;;
1090;SDS011;534;48.704;9.122;2024-03-02T07:14:39;11.60;;;7.80;;
1090;SDS011;534;48.704;9.122;2024-03-02T07:17:25;12.20;;;8.00;;
1090;SDS011;534;48.704;9.122;2024-03-02T07:19:51;9.77;;;6.53;;
1090;SDS011;534;48.704;9.122;2024-03-02T07:22:18;9.77;;;6.27;;
1090;SDS011;534;48.704;9.122;2024-03-02T07:24:45;9.67;;;7.30;;
1090;SDS011;534;48.704;9.122;2024-03-02T07:27:12;11.50;;;7.30;;
1090;SDS011;534;48.704;9.122;2024-03-02T07:29:39;9.67;;;6.60;;
1090;SDS011;534;48.704;9.122;2024-03-02T07:32:06;10.50;;;7.40;;
1090;SDS011;534;48.704;9.122;2024-03-02T07:34:35;11.27;;;7.23;;
1090;SDS011;534;48.704;9.122;2024-03-02T07:37:02;11.97;;;8.73;;
1090;SDS011;534;48.704;9.122;2024-03-02T07:39:29;13.67;;;8.90;;
1090;SDS011;534;48.704;9.122;2024-03-02T07:41:56;13.47;;;9.07;;
1090;SDS011;534;48.704;9.122;2024-03-02T07:44:23;10.90;;;7.93;;
1090;SDS011;534;48.704;9.122;2024-03-02T07:46:50;12.33;;;8.90;;
1090;SDS011;534;48.704;9.122;2024-03-02T07:49:16;15.43;;;11.50;;
1090;SDS011;534;48.704;9.122;2024-03-02T07:51:45;13.27;;;9.70;;
1090;SDS011;534;48.704;9.122;2024-03-02T07:54:11;13.93;;;9.03;;
1090;SDS011;534;48.704;9.122;2024-03-02T07:56:38;13.27;;;8.50;;
1090;SDS011;534;48.704;9.122;2024-03-02T07:59:05;13.87;;;10.93;;
1090;SDS011;534;48.704;9.122;2024-03-02T08:01:32;10.53;;;8.33;;
1090;SDS011;534;48.704;9.122;2024-03-02T08:03:59;11.10;;;7.47;;
1090;SDS011;534;48.704;9.122;2024-03-02T08:06:28;12.13;;;7.20;;
1090;SDS011;534;48.704;9.122;2024-03-02T08:08:57;9.73;;;6.47;;
1090;SDS011;534;48.704;9.122;2024-03-02T08:11:25;10.87;;;7.00;;
1090;SDS011;534;48.704;9.122;2024-03-02T08:13:52;11.47;;;6.60;;
1090;SDS011;534;48.704;9.122;2024-03-02T08:16:20;11.23;;;6.43;;
1090;SDS011;534;48.704;9.122;2024-03-02T08:18:47;12.80;;;9.10;;
1090;SDS011;534;48.704;9.122;2024-03-02T08:21:13;10.53;;;6.40;;
1090;SDS011;534;48.704;9.122;2024-03-02T08:23:40;11.07;;;8.60;;
1090;SDS011;534;48.704;9.122;2024-03-02T08:26:09;9.13;;;5.40;;
1090;SDS011;534;48.704;9.122;2024-03-02T08:28:36;11.00;;;6.40;;
1090;SDS011;534;48.704;9.122;2024-03-02T08:31:05;8.23;;;6.20;;
1090;SDS011;534;48.704;9.122;2024-03-02T08:33:32;10.50;;;7.03;;
1090;SDS011;534;48.704;9.122;2024-03-02T08:35:59;8.70;;;5.33;;
1090;SDS011;534;48.704;9.122;2024-03-02T08:38:25;9.53;;;6.40;;
1090;SDS011;534;48.704;9.122;2024-03-02T08:40:52;9.03;;;5.70;;
1090;SDS011;534;48.704;9.122;2024-03-02T08:43:21;9.33;;;6.23;;
1090;SDS011;534;48.704;9.122;2024-03-02T08:45:48;11.37;;;6.87;;
1090;SDS011;534;48.704;9.122;2024-03-02T08:48:15;9.87;;;6.93;;
1090;SDS011;534;48.704;9.122;2024-03-02T08:50:42;10.53;;;6.40;;
1090;SDS011;534;48.704;9.122;2024-03-02T08:53:09;10.20;;;6.37;;
1090;SDS011;534;48.704;9.122;2024-03-02T08:55:35;8.93;;;6.53;;
1090;SDS011;534;48.704;9.122;2024-03-02T08:58:02;11.67;;;7.00;;
1090;SDS011;534;48.704;9.122;2024-03-02T09:00:30;10.63;;;6.97;;
1090;SDS011;534;48.704;9.122;2024-03-02T09:02:57;10.00;;;5.90;;
1090;SDS011;534;48.704;9.122;2024-03-02T09:05:24;11.20;;;6.47;;
1090;SDS011;534;48.704;9.122;2024-03-02T09:07:51;10.00;;;6.10;;
1090;SDS011;534;48.704;9.122;2024-03-02T09:10:17;7.90;;;5.07;;
1090;SDS011;534;48.704;9.122;2024-03-02T09:12:44;8.43;;;4.70;;
1090;SDS011;534;48.704;9.122;2024-03-02T09:15:11;7.80;;;4.60;;
1090;SDS011;534;48.704;9.122;2024-03-02T09:17:39;9.67;;;5.40;;
1090;SDS011;534;48.704;9.122;2024-03-02T09:20:06;9.00;;;4.73;;
1090;SDS011;534;48.704;9.122;2024-03-02T09:22:33;9.23;;;6.00;;
1090;SDS011;534;48.704;9.122;2024-03-02T09:25:00;8.30;;;5.07;;
1090;SDS011;534;48.704;9.122;2024-03-02T09:27:27;9.40;;;5.50;;
1090;SDS011;534;48.704;9.122;2024-03-02T09:29:53;8.00;;;4.73;;
1090;SDS011;534;48.704;9.122;2024-03-02T09:32:20;7.77;;;4.73;;
1090;SDS011;534;48.704;9.122;2024-03-02T09:34:48;8.67;;;4.60;;
1090;SDS011;534;48.704;9.122;2024-03-02T09:37:14;7.43;;;4.13;;
1090;SDS011;534;48.704;9.122;2024-03-02T09:39:43;6.97;;;4.20;;
1090;SDS011;534;48.704;9.122;2024-03-02T09:42:10;8.40;;;4.50;;
1090;SDS011;534;48.704;9.122;2024-03-02T09:44:37;7.63;;;4.67;;
1090;SDS011;534;48.704;9.122;2024-03-02T09:47:04;6.70;;;4.40;;
1090;SDS011;534;48.704;9.122;2024-03-02T09:49:32;6.90;;;4.40;;
1090;SDS011;534;48.704;9.122;2024-03-02T09:52:00;7.17;;;3.57;;
1090;SDS011;534;48.704;9.122;2024-03-02T09:54:27;6.80;;;3.13;;
1090;SDS011;534;48.704;9.122;2024-03-02T09:56:53;8.17;;;3.80;;
1090;SDS011;534;48.704;9.122;2024-03-02T09:59:20;6.63;;;3.40;;
1090;SDS011;534;48.704;9.122;2024-03-02T10:04:32;5.13;;;2.70;;
1090;SDS011;534;48.704;9.122;2024-03-02T10:07:11;6.20;;;3.10;;
1090;SDS011;534;48.704;9.122;2024-03-02T10:09:39;5.70;;;3.03;;
1090;SDS011;534;48.704;9.122;2024-03-02T10:12:06;5.60;;;2.90;;
1090;SDS011;534;48.704;9.122;2024-03-02T10:14:34;5.53;;;2.83;;
1090;SDS011;534;48.704;9.122;2024-03-02T10:17:02;6.50;;;3.10;;
1090;SDS011;534;48.704;9.122;2024-03-02T10:19:29;5.00;;;2.60;;
1090;SDS011;534;48.704;9.122;2024-03-02T10:21:58;4.67;;;2.17;;
1090;SDS011;534;48.704;9.122;2024-03-02T10:24:26;6.40;;;2.93;;
1090;SDS011;534;48.704;9.122;2024-03-02T10:26:53;6.30;;;2.80;;
1090;SDS011;534;48.704;9.122;2024-03-02T10:29:21;5.27;;;2.60;;
1090;SDS011;534;48.704;9.122;2024-03-02T10:31:48;5.43;;;2.50;;
1090;SDS011;534;48.704;9.122;2024-03-02T10:34:15;6.50;;;2.77;;
1090;SDS011;534;48.704;9.122;2024-03-02T10:36:42;6.43;;;2.57;;
1090;SDS011;534;48.704;9.122;2024-03-02T10:39:10;5.53;;;2.07;;
1090;SDS011;534;48.704;9.122;2024-03-02T10:41:40;4.67;;;2.30;;
1090;SDS011;534;48.704;9.122;2024-03-02T10:44:07;5.70;;;2.50;;
1090;SDS011;534;48.704;9.122;2024-03-02T10:46:36;5.63;;;2.50;;
1090;SDS011;534;48.704;9.122;2024-03-02T10:49:04;5.50;;;2.67;;
1090;SDS011;534;48.704;9.122;2024-03-02T10:51:32;5.80;;;2.23;;
1090;SDS011;534;48.704;9.122;2024-03-02T10:54:01;5.97;;;2.60;;
1090;SDS011;534;48.704;9.122;2024-03-02T10:56:29;5.53;;;2.77;;
1090;SDS011;534;48.704;9.122;2024-03-02T10:59:01;5.87;;;3.00;;
1090;SDS011;534;48.704;9.122;2024-03-02T11:01:29;5.00;;;2.30;;
1090;SDS011;534;48.704;9.122;2024-03-02T11:03:58;4.70;;;1.63;;
1090;SDS011;534;48.704;9.122;2024-03-02T11:06:26;5.10;;;1.80;;
1090;SDS011;534;48.704;9.122;2024-03-02T11:08:57;5.10;;;1.27;;
1090;SDS011;534;48.704;9.122;2024-03-02T11:11:26;4.67;;;1.20;;
1090;SDS011;534;48.704;9.122;2024-03-02T11:13:57;3.83;;;0.90;;
1090;SDS011;534;48.704;9.122;2024-03-02T11:16:35;4.10;;;1.13;;
1090;SDS011;534;48.704;9.122;2024-03-02T11:19:04;4.20;;;1.23;;
1090;SDS011;534;48.704;9.122;2024-03-02T11:21:32;5.50;;;2.00;;
1090;SDS011;534;48.704;9.122;2024-03-02T11:24:00;4.00;;;1.00;;
1090;SDS011;534;48.704;9.122;2024-03-02T11:26:47;5.70;;;1.40;;
1090;SDS011;534;48.704;9.122;2024-03-02T11:29:25;4.37;;;1.13;;
1090;SDS011;534;48.704;9.122;2024-03-02T11:32:14;5.27;;;2.30;;
1090;SDS011;534;48.704;9.122;2024-03-02T11:34:42;5.00;;;2.13;;
1090;SDS011;534;48.704;9.122;2024-03-02T11:37:11;4.60;;;1.60;;
1090;SDS011;534;48.704;9.122;2024-03-02T11:39:38;5.30;;;1.73;;
1090;SDS011;534;48.704;9.122;2024-03-02T11:42:06;5.30;;;1.80;;
1090;SDS011;534;48.704;9.122;2024-03-02T11:44:34;4.40;;;1.47;;
1090;SDS011;534;48.704;9.122;2024-03-02T11:47:02;4.27;;;1.40;;
1090;SDS011;534;48.704;9.122;2024-03-02T11:49:39;5.70;;;2.50;;
1090;SDS011;534;48.704;9.122;2024-03-02T11:52:08;4.20;;;1.20;;
1090;SDS011;534;48.704;9.122;2024-03-02T11:54:36;4.33;;;1.40;;
1090;SDS011;534;48.704;9.122;2024-03-02T11:57:05;5.10;;;1.60;;
1090;SDS011;534;48.704;9.122;2024-03-02T11:59:32;4.80;;;1.50;;
1090;SDS011;534;48.704;9.122;2024-03-02T12:01:59;5.00;;;1.97;;
1090;SDS011;534;48.704;9.122;2024-03-02T12:04:26;5.33;;;2.10;;
1090;SDS011;534;48.704;9.122;2024-03-02T12:06:58;4.67;;;2.07;;
1090;SDS011;534;48.704;9.122;2024-03-02T12:09:25;4.63;;;1.83;;
1090;SDS011;534;48.704;9.122;2024-03-02T12:12:05;4.20;;;1.43;;
1090;SDS011;534;48.704;9.122;2024-03-02T12:14:33;4.60;;;2.00;;
1090;SDS011;534;48.704;9.122;2024-03-02T12:17:01;4.47;;;1.40;;
1090;SDS011;534;48.704;9.122;2024-03-02T12:19:28;4.50;;;1.40;;
1090;SDS011;534;48.704;9.122;2024-03-02T12:21:55;4.40;;;1.60;;
1090;SDS011;534;48.704;9.122;2024-03-02T12:24:27;5.03;;;1.70;;
1090;SDS011;534;48.704;9.122;2024-03-02T12:26:55;3.93;;;1.27;;
1090;SDS011;534;48.704;9.122;2024-03-02T12:29:22;6.10;;;2.20;;
1090;SDS011;534;48.704;9.122;2024-03-02T12:31:50;4.67;;;1.83;;
1090;SDS011;534;48.704;9.122;2024-03-02T12:34:18;4.60;;;2.10;;
1090;SDS011;534;48.704;9.122;2024-03-02T12:36:45;5.00;;;2.00;;
1090;SDS011;534;48.704;9.122;2024-03-02T12:39:16;5.30;;;1.87;;
1090;SDS011;534;48.704;9.122;2024-03-02T12:41:43;4.53;;;1.80;;
1090;SDS011;534;48.704;9.122;2024-03-02T12:44:09;5.30;;;2.00;;
1090;SDS011;534;48.704;9.122;2024-03-02T12:46:36;4.20;;;1.40;;
1090;SDS011;534;48.704;9.122;2024-03-02T12:49:07;4.73;;;1.57;;
1090;SDS011;534;48.704;9.122;2024-03-02T12:51:36;5.03;;;1.90;;
1090;SDS011;534;48.704;9.122;2024-03-02T12:54:03;5.20;;;1.60;;
1090;SDS011;534;48.704;9.122;2024-03-02T12:56:31;4.80;;;1.97;;
1090;SDS011;534;48.704;9.122;2024-03-02T12:58:58;6.03;;;2.27;;
1090;SDS011;534;48.704;9.122;2024-03-02T13:01:25;5.30;;;2.30;;
1090;SDS011;534;48.704;9.122;2024-03-02T13:03:52;4.80;;;1.80;;
1090;SDS011;534;48.704;9.122;2024-03-02T13:06:20;4.60;;;1.90;;
1090;SDS011;534;48.704;9.122;2024-03-02T13:08:47;5.20;;;1.60;;
1090;SDS011;534;48.704;9.122;2024-03-02T13:11:15;4.37;;;1.47;;
1090;SDS011;534;48.704;9.122;2024-03-02T13:13:44;4.30;;;1.37;;
1090;SDS011;534;48.704;9.122;2024-03-02T13:16:11;4.30;;;1.80;;
1090;SDS011;534;48.704;9.122;2024-03-02T13:18:38;4.60;;;1.40;;
1090;SDS011;534;48.704;9.122;2024-03-02T13:21:06;4.30;;;1.43;;
1090;SDS011;534;48.704;9.122;2024-03-02T13:23:33;4.23;;;1.53;;
1090;SDS011;534;48.704;9.122;2024-03-02T13:25:59;4.40;;;1.50;;
1090;SDS011;534;48.704;9.122;2024-03-02T13:28:26;4.10;;;1.30;;
1090;SDS011;534;48.704;9.122;2024-03-02T13:30:55;4.40;;;1.80;;
1090;SDS011;534;48.704;9.122;2024-03-02T13:33:21;5.17;;;1.70;;
1090;SDS011;534;48.704;9.122;2024-03-02T13:35:48;5.10;;;1.93;;
1090;SDS011;534;48.704;9.122;2024-03-02T13:38:16;5.10;;;1.60;;
1090;SDS011;534;48.704;9.122;2024-03-02T13:40:43;5.83;;;1.50;;
1090;SDS011;534;48.704;9.122;2024-03-02T13:43:09;5.23;;;1.83;;
1090;SDS011;534;48.704;9.122;2024-03-02T13:45:36;6.40;;;2.03;;
1090;SDS011;534;48.704;9.122;2024-03-02T13:48:05;4.60;;;1.50;;
1090;SDS011;534;48.704;9.122;2024-03-02T13:50:32;4.50;;;1.70;;
1090;SDS011;534;48.704;9.122;2024-03-02T13:52:59;5.13;;;2.33;;
1090;SDS011;534;48.704;9.122;2024-03-02T13:55:25;4.53;;;1.70;;
1090;SDS011;534;48.704;9.122;2024-03-02T13:57:52;4.90;;;1.60;;
1090;SDS011;534;48.704;9.122;2024-03-02T14:00:19;5.10;;;1.83;;
1090;SDS011;534;48.704;9.122;2024-03-02T14:02:46;4.27;;;1.37;;
1090;SDS011;534;48.704;9.122;2024-03-02T14:05:17;4.40;;;1.53;;
1090;SDS011;534;48.704;9.122;2024-03-02T14:07:44;4.60;;;1.47;;
1090;SDS011;534;48.704;9.122;2024-03-02T14:10:11;4.23;;;1.50;;
1090;SDS011;534;48.704;9.122;2024-03-02T14:12:40;4.53;;;1.20;;
1090;SDS011;534;48.704;9.122;2024-03-02T14:15:07;4.73;;;1.20;;
1090;SDS011;534;48.704;9.122;2024-03-02T14:17:34;5.03;;;1.60;;
1090;SDS011;534;48.704;9.122;2024-03-02T14:20:01;4.20;;;1.37;;
1090;SDS011;534;48.704;9.122;2024-03-02T14:22:31;4.20;;;1.30;;
1090;SDS011;534;48.704;9.122;2024-03-02T14:24:58;5.60;;;1.50;;
1090;SDS011;534;48.704;9.122;2024-03-02T14:27:25;4.40;;;1.40;;
1090;SDS011;534;48.704;9.122;2024-03-02T14:29:52;4.53;;;1.60;;
1090;SDS011;534;48.704;9.122;2024-03-02T14:32:18;5.67;;;1.30;;
1090;SDS011;534;48.704;9.122;2024-03-02T14:34:45;4.90;;;1.30;;
1090;SDS011;534;48.704;9.122;2024-03-02T14:37:12;4.13;;;1.40;;
1090;SDS011;534;48.704;9.122;2024-03-02T14:39:40;4.23;;;1.40;;
1090;SDS011;534;48.704;9.122;2024-03-02T14:42:07;4.17;;;1.30;;
1090;SDS011;534;48.704;9.122;2024-03-02T14:44:34;4.30;;;1.40;;
1090;SDS011;534;48.704;9.122;2024-03-02T14:47:01;4.30;;;1.30;;
1090;SDS011;534;48.704;9.122;2024-03-02T14:49:29;4.40;;;1.53;;
1090;SDS011;534;48.704;9.122;2024-03-02T14:51:56;3.87;;;1.17;;
1090;SDS011;534;48.704;9.122;2024-03-02T14:54:23;4.50;;;1.60;;
1090;SDS011;534;48.704;9.122;2024-03-02T14:56:51;4.17;;;1.30;;
1090;SDS011;534;48.704;9.122;2024-03-02T14:59:17;4.60;;;1.40;;
1090;SDS011;534;48.704;9.122;2024-03-02T15:01:44;6.00;;;1.20;;
1090;SDS011;534;48.704;9.122;2024-03-02T15:04:11;6.73;;;1.73;;
1090;SDS011;534;48.704;9.122;2024-03-02T15:06:38;7.23;;;1.30;;
1090;SDS011;534;48.704;9.122;2024-03-02T15:09:05;4.80;;;1.10;;
1090;SDS011;534;48.704;9.122;2024-03-02T15:11:33;4.10;;;1.20;;
1090;SDS011;534;48.704;9.122;2024-03-02T15:14:01;4.73;;;2.10;;
1090;SDS011;534;48.704;9.122;2024-03-02T15:16:27;4.20;;;1.40;;
1090;SDS011;534;48.704;9.122;2024-03-02T15:18:54;4.00;;;1.10;;
1090;SDS011;534;48.704;9.122;2024-03-02T15:21:21;4.40;;;1.30;;
1090;SDS011;534;48.704;9.122;2024-03-02T15:23:48;4.57;;;1.13;;
1090;SDS011;534;48.704;9.122;2024-03-02T15:26:14;4.30;;;1.30;;
1090;SDS011;534;48.704;9.122;2024-03-02T15:28:41;4.13;;;1.20;;
1090;SDS011;534;48.704;9.122;2024-03-02T15:31:09;4.70;;;1.50;;
1090;SDS011;534;48.704;9.122;2024-03-02T15:33:35;4.27;;;1.50;;
1090;SDS011;534;48.704;9.122;2024-03-02T15:36:03;5.10;;;2.40;;
1090;SDS011;534;48.704;9.122;2024-03-02T15:38:30;5.50;;;2.07;;
1090;SDS011;534;48.704;9.122;2024-03-02T15:40:57;6.10;;;1.67;;
1090;SDS011;534;48.704;9.122;2024-03-02T15:43:24;4.70;;;1.70;;
1090;SDS011;534;48.704;9.122;2024-03-02T15:45:52;5.63;;;2.10;;
1090;SDS011;534;48.704;9.122;2024-03-02T15:48:20;5.20;;;1.43;;
1090;SDS011;534;48.704;9.122;2024-03-02T15:50:46;4.80;;;2.07;;
1090;SDS011;534;48.704;9.122;2024-03-02T15:53:15;6.87;;;2.73;;
1090;SDS011;534;48.704;9.122;2024-03-02T15:55:41;6.90;;;1.80;;
1090;SDS011;534;48.704;9.122;2024-03-02T15:58:08;4.10;;;1.10;;
1090;SDS011;534;48.704;9.122;2024-03-02T16:00:35;4.63;;;1.63;;
1090;SDS011;534;48.704;9.122;2024-03-02T16:03:01;5.80;;;2.00;;
1090;SDS011;534;48.704;9.122;2024-03-02T16:05:29;5.50;;;2.70;;
1090;SDS011;534;48.704;9.122;2024-03-02T16:07:56;6.17;;;2.83;;
1090;SDS011;534;48.704;9.122;2024-03-02T16:10:23;5.70;;;2.43;;
1090;SDS011;534;48.704;9.122;2024-03-02T16:12:50;7.10;;;2.73;;
1090;SDS011;534;48.704;9.122;2024-03-02T16:15:18;5.10;;;2.00;;
1090;SDS011;534;48.704;9.122;2024-03-02T16:17:45;5.13;;;2.17;;
1090;SDS011;534;48.704;9.122;2024-03-02T16:20:11;5.60;;;1.90;;
1090;SDS011;534;48.704;9.122;2024-03-02T16:22:39;4.50;;;2.00;;
1090;SDS011;534;48.704;9.122;2024-03-02T16:25:06;4.93;;;1.80;;
1090;SDS011;534;48.704;9.122;2024-03-02T16:27:34;4.80;;;1.90;;
1090;SDS011;534;48.704;9.122;2024-03-02T16:30:00;7.43;;;3.63;;
1090;SDS011;534;48.704;9.122;2024-03-02T16:32:27;6.23;;;3.23;;
1090;SDS011;534;48.704;9.122;2024-03-02T16:34:54;5.40;;;2.63;;
1090;SDS011;534;48.704;9.122;2024-03-02T16:37:21;5.97;;;2.63;;
1090;SDS011;534;48.704;9.122;2024-03-02T16:39:51;5.33;;;2.27;;
1090;SDS011;534;48.704;9.122;2024-03-02T16:42:18;4.90;;;1.80;;
1090;SDS011;534;48.704;9.122;2024-03-02T16:44:45;6.30;;;2.70;;
1090;SDS011;534;48.704;9.122;2024-03-02T16:47:13;5.33;;;2.00;;
1090;SDS011;534;48.704;9.122;2024-03-02T16:49:43;4.87;;;2.07;;
1090;SDS011;534;48.704;9.122;2024-03-02T16:52:10;7.10;;;3.80;;
1090;SDS011;534;48.704;9.122;2024-03-02T16:54:37;10.70;;;4.80;;
1090;SDS011;534;48.704;9.122;2024-03-02T16:57:05;11.50;;;5.10;;
1090;SDS011;534;48.704;9.122;2024-03-02T16:59:34;6.20;;;3.30;;
1090;SDS011;534;48.704;9.122;2024-03-02T17:02:01;5.30;;;2.47;;
1090;SDS011;534;48.704;9.122;2024-03-02T17:04:28;5.43;;;2.23;;
1090;SDS011;534;48.704;9.122;2024-03-02T17:06:55;12.93;;;3.10;;
1090;SDS011;534;48.704;9.122;2024-03-02T17:09:21;6.50;;;3.17;;
1090;SDS011;534;48.704;9.122;2024-03-02T17:11:48;9.80;;;3.60;;
1090;SDS011;534;48.704;9.122;2024-03-02T17:14:16;7.97;;;4.00;;
1090;SDS011;534;48.704;9.122;2024-03-02T17:16:42;9.20;;;3.27;;
1090;SDS011;534;48.704;9.122;2024-03-02T17:19:09;5.67;;;3.00;;
1090;SDS011;534;48.704;9.122;2024-03-02T17:21:36;6.83;;;3.90;;
1090;SDS011;534;48.704;9.122;2024-03-02T17:24:02;8.80;;;4.07;;
1090;SDS011;534;48.704;9.122;2024-03-02T17:26:30;8.13;;;4.07;;
1090;SDS011;534;48.704;9.122;2024-03-02T17:28:56;5.70;;;3.30;;
1090;SDS011;534;48.704;9.122;2024-03-02T17:31:24;7.57;;;4.03;;
1090;SDS011;534;48.704;9.122;2024-03-02T17:33:51;7.00;;;4.30;;
1090;SDS011;534;48.704;9.122;2024-03-02T17:36:18;9.70;;;3.87;;
1090;SDS011;534;48.704;9.122;2024-03-02T17:38:44;7.37;;;3.60;;
1090;SDS011;534;48.704;9.122;2024-03-02T17:41:11;7.00;;;3.97;;
1090;SDS011;534;48.704;9.122;2024-03-02T17:43:37;6.40;;;4.50;;
1090;SDS011;534;48.704;9.122;2024-03-02T17:46:04;8.40;;;4.40;;
1090;SDS011;534;48.704;9.122;2024-03-02T17:48:32;8.93;;;4.50;;
1090;SDS011;534;48.704;9.122;2024-03-02T17:50:59;8.00;;;4.43;;
1090;SDS011;534;48.704;9.122;2024-03-02T17:53:26;9.90;;;6.63;;
1090;SDS011;534;48.704;9.122;2024-03-02T17:55:52;10.10;;;5.50;;
1090;SDS011;534;48.704;9.122;2024-03-02T17:58:19;9.20;;;5.73;;
1090;SDS011;534;48.704;9.122;2024-03-02T18:00:46;10.20;;;5.77;;
1090;SDS011;534;48.704;9.122;2024-03-02T18:03:12;11.57;;;6.80;;
1090;SDS011;534;48.704;9.122;2024-03-02T18:05:40;10.00;;;6.70;;
1090;SDS011;534;48.704;9.122;2024-03-02T18:08:07;10.20;;;7.87;;
1090;SDS011;534;48.704;9.122;2024-03-02T18:10:34;10.70;;;7.83;;
1090;SDS011;534;48.704;9.122;2024-03-02T18:13:00;14.10;;;9.50;;
1090;SDS011;534;48.704;9.122;2024-03-02T18:15:27;14.47;;;10.83;;
1090;SDS011;534;48.704;9.122;2024-03-02T18:17:54;13.17;;;10.20;;
1090;SDS011;534;48.704;9.122;2024-03-02T18:20:20;13.53;;;8.90;;
1090;SDS011;534;48.704;9.122;2024-03-02T18:22:48;14.23;;;10.13;;
1090;SDS011;534;48.704;9.122;2024-03-02T18:25:15;14.10;;;10.03;;
1090;SDS011;534;48.704;9.122;2024-03-02T18:27:41;16.47;;;12.27;;
1090;SDS011;534;48.704;9.122;2024-03-02T18:30:08;17.43;;;11.13;;
1090;SDS011;534;48.704;9.122;2024-03-02T18:32:36;17.13;;;12.30;;
1090;SDS011;534;48.704;9.122;2024-03-02T18:35:04;19.63;;;14.03;;
1090;SDS011;534;48.704;9.122;2024-03-02T18:37:31;21.50;;;13.00;;
1090;SDS011;534;48.704;9.122;2024-03-02T18:39:59;20.10;;;13.33;;
1090;SDS011;534;48.704;9.122;2024-03-02T18:42:26;19.50;;;13.53;;
1090;SDS011;534;48.704;9.122;2024-03-02T18:44:52;23.70;;;14.37;;
1090;SDS011;534;48.704;9.122;2024-03-02T18:47:19;21.53;;;14.80;;
1090;SDS011;534;48.704;9.122;2024-03-02T18:49:45;22.27;;;14.90;;
1090;SDS011;534;48.704;9.122;2024-03-02T18:52:12;19.47;;;14.20;;
1090;SDS011;534;48.704;9.122;2024-03-02T18:54:40;19.30;;;14.70;;
1090;SDS011;534;48.704;9.122;2024-03-02T18:57:08;20.27;;;15.30;;
1090;SDS011;534;48.704;9.122;2024-03-02T18:59:35;18.47;;;13.77;;
1090;SDS011;534;48.704;9.122;2024-03-02T19:02:02;21.20;;;14.57;;
1090;SDS011;534;48.704;9.122;2024-03-02T19:04:29;20.20;;;13.70;;
1090;SDS011;534;48.704;9.122;2024-03-02T19:06:55;21.47;;;15.33;;
1090;SDS011;534;48.704;9.122;2024-03-02T19:09:22;21.63;;;15.17;;
1090;SDS011;534;48.704;9.122;2024-03-02T19:11:49;20.93;;;17.00;;
1090;SDS011;534;48.704;9.122;2024-03-02T19:14:17;21.07;;;17.33;;
1090;SDS011;534;48.704;9.122;2024-03-02T19:16:43;21.50;;;16.23;;
1090;SDS011;534;48.704;9.122;2024-03-02T19:19:10;19.70;;;15.90;;
1090;SDS011;534;48.704;9.122;2024-03-02T19:21:37;23.07;;;17.67;;
1090;SDS011;534;48.704;9.122;2024-03-02T19:24:03;22.07;;;15.47;;
1090;SDS011;534;48.704;9.122;2024-03-02T19:26:30;22.37;;;16.47;;
1090;SDS011;534;48.704;9.122;2024-03-02T19:28:57;22.57;;;15.53;;
1090;SDS011;534;48.704;9.122;2024-03-02T19:31:24;23.63;;;16.70;;
1090;SDS011;534;48.704;9.122;2024-03-02T19:33:51;24.77;;;18.57;;
1090;SDS011;534;48.704;9.122;2024-03-02T19:36:18;25.73;;;18.60;;
1090;SDS011;534;48.704;9.122;2024-03-02T19:38:44;30.60;;;21.83;;
1090;SDS011;534;48.704;9.122;2024-03-02T19:41:11;28.30;;;21.80;;
1090;SDS011;534;48.704;9.122;2024-03-02T19:43:38;27.70;;;21.77;;
1090;SDS011;534;48.704;9.122;2024-03-02T19:46:04;24.07;;;19.03;;
1090;SDS011;534;48.704;9.122;2024-03-02T19:48:32;27.23;;;19.90;;
1090;SDS011;534;48.704;9.122;2024-03-02T19:50:59;26.53;;;18.97;;
1090;SDS011;534;48.704;9.122;2024-03-02T19:53:25;24.57;;;18.30;;
1090;SDS011;534;48.704;9.122;2024-03-02T19:55:52;25.80;;;18.63;;
1090;SDS011;534;48.704;9.122;2024-03-02T19:58:19;25.10;;;20.37;;
1090;SDS011;534;48.704;9.122;2024-03-02T20:00:45;25.50;;;20.23;;
1090;SDS011;534;48.704;9.122;2024-03-02T20:03:12;27.50;;;18.93;;
1090;SDS011;534;48.704;9.122;2024-03-02T20:05:40;23.70;;;19.17;;
1090;SDS011;534;48.704;9.122;2024-03-02T20:08:06;25.13;;;16.70;;
1090;SDS011;534;48.704;9.122;2024-03-02T20:10:33;22.93;;;15.93;;
1090;SDS011;534;48.704;9.122;2024-03-02T20:13:00;22.97;;;17.10;;
1090;SDS011;534;48.704;9.122;2024-03-02T20:15:29;24.00;;;17.77;;
1090;SDS011;534;48.704;9.122;2024-03-02T20:17:56;19.97;;;16.33;;
1090;SDS011;534;48.704;9.122;2024-03-02T20:20:22;21.40;;;16.60;;
1090;SDS011;534;48.704;9.122;2024-03-02T20:22:50;25.70;;;16.93;;
1090;SDS011;534;48.704;9.122;2024-03-02T20:25:17;20.30;;;16.23;;
1090;SDS011;534;48.704;9.122;2024-03-02T20:27:44;24.60;;;17.17;;